createdAt,value
2019-05-09T00:00:04.707Z,11.20
2019-05-09T00:01:04.894Z,11.10
2019-05-09T00:02:07.558Z,11.20
2019-05-09T00:03:05.524Z,11.20
2019-05-09T00:04:05.541Z,11.20
2019-05-09T00:05:05.645Z,11.10
2019-05-09T00:06:04.813Z,11.10
2019-05-09T00:07:04.907Z,11.20
2019-05-09T00:08:07.489Z,11.20
2019-05-09T00:09:07.909Z,11.10
2019-05-09T00:10:07.455Z,11.10
2019-05-09T00:11:05.399Z,11.10
2019-05-09T00:12:05.639Z,11.10
2019-05-09T00:13:07.363Z,11.10
2019-05-09T00:14:07.930Z,11.10
2019-05-09T00:15:05.110Z,11.10
2019-05-09T00:16:05.239Z,11.10
2019-05-09T00:17:05.367Z,11.20
2019-05-09T00:18:05.531Z,11.10
2019-05-09T00:19:13.648Z,11.10
2019-05-09T00:20:13.592Z,11.10
2019-05-09T00:21:04.912Z,11.10
2019-05-09T00:22:05.069Z,11.10
2019-05-09T00:23:05.281Z,11.10
2019-05-09T00:24:07.920Z,11.10
2019-05-09T00:25:05.043Z,11.10
2019-05-09T00:26:05.249Z,11.10
2019-05-09T00:27:10.476Z,11.10
2019-05-09T00:28:05.386Z,11.10
2019-05-09T00:29:08.005Z,11.10
2019-05-09T00:30:07.444Z,11.10
2019-05-09T00:31:10.410Z,11.00
2019-05-09T00:32:05.501Z,11.10
2019-05-09T00:33:08.152Z,11.10
2019-05-09T00:34:07.547Z,11.10
2019-05-09T00:35:08.106Z,11.10
2019-05-09T00:36:05.133Z,11.10
2019-05-09T00:37:05.241Z,11.10
2019-05-09T00:38:05.574Z,11.00
2019-05-09T00:39:04.750Z,11.10
2019-05-09T00:40:04.775Z,11.10
2019-05-09T00:41:05.029Z,11.00
2019-05-09T00:42:07.723Z,11.00
2019-05-09T00:43:05.627Z,11.00
2019-05-09T00:44:07.357Z,11.00
2019-05-09T00:45:05.367Z,11.00
2019-05-09T00:46:05.627Z,11.00
2019-05-09T00:47:04.991Z,11.00
2019-05-09T00:48:05.250Z,11.00
2019-05-09T00:49:05.361Z,11.00
2019-05-09T00:50:05.469Z,11.00
2019-05-09T00:51:08.168Z,10.90
2019-05-09T00:52:07.712Z,11.00
2019-05-09T00:53:04.787Z,11.00
2019-05-09T00:54:04.990Z,11.00
2019-05-09T00:55:05.185Z,11.00
2019-05-09T00:56:05.410Z,11.00
2019-05-09T00:57:05.499Z,10.90
2019-05-09T00:58:05.606Z,10.90
2019-05-09T00:59:04.794Z,10.90
2019-05-09T01:00:04.831Z,10.90
2019-05-09T01:01:04.914Z,10.90
2019-05-09T01:02:07.556Z,10.90
2019-05-09T01:03:14.117Z,11.00
2019-05-09T01:04:05.307Z,11.00
2019-05-09T01:05:07.934Z,10.90
2019-05-09T01:06:05.070Z,11.00
2019-05-09T01:07:05.240Z,11.00
2019-05-09T01:08:05.381Z,11.00
2019-05-09T01:09:05.443Z,11.00
2019-05-09T01:10:04.956Z,11.00
2019-05-09T01:11:11.936Z,11.00
2019-05-09T01:12:04.811Z,10.90
2019-05-09T01:13:04.967Z,10.90
2019-05-09T01:14:05.103Z,11.00
2019-05-09T01:15:07.752Z,11.00
2019-05-09T01:16:14.799Z,11.00
2019-05-09T01:17:07.319Z,11.00
2019-05-09T01:18:07.880Z,11.00
2019-05-09T01:19:04.987Z,11.00
2019-05-09T01:20:05.168Z,11.00
2019-05-09T01:21:05.418Z,11.00
2019-05-09T01:22:07.903Z,11.00
2019-05-09T01:23:07.385Z,11.00
2019-05-09T01:24:07.845Z,11.00
2019-05-09T01:25:07.294Z,11.00
2019-05-09T01:26:05.205Z,10.90
2019-05-09T01:27:05.333Z,11.00
2019-05-09T01:28:07.976Z,10.90
2019-05-09T01:29:04.945Z,10.90
2019-05-09T01:30:05.007Z,10.90
2019-05-09T01:31:05.185Z,11.00
2019-05-09T01:32:05.330Z,10.90
2019-05-09T01:33:07.927Z,10.90
2019-05-09T01:34:04.784Z,10.90
2019-05-09T01:35:05.147Z,10.90
2019-05-09T01:36:05.295Z,10.90
2019-05-09T01:37:05.348Z,10.90
2019-05-09T01:38:05.573Z,10.90
2019-05-09T01:39:04.711Z,10.90
2019-05-09T01:40:04.803Z,10.90
2019-05-09T01:41:04.952Z,10.90
2019-05-09T01:42:07.863Z,10.90
2019-05-09T01:43:04.872Z,10.90
2019-05-09T01:44:05.013Z,10.90
2019-05-09T01:45:08.018Z,10.80
2019-05-09T01:46:05.373Z,10.90
2019-05-09T01:47:05.424Z,10.80
2019-05-09T01:48:05.546Z,10.90
2019-05-09T01:49:07.266Z,10.90
2019-05-09T01:50:10.343Z,10.90
2019-05-09T01:51:05.260Z,10.80
2019-05-09T01:52:07.963Z,10.80
2019-05-09T01:53:10.011Z,10.80
2019-05-09T01:54:05.006Z,10.80
2019-05-09T01:55:05.202Z,10.80
2019-05-09T01:56:07.850Z,10.80
2019-05-09T01:57:04.768Z,10.80
2019-05-09T01:58:04.833Z,10.80
2019-05-09T01:59:04.924Z,10.80
2019-05-09T02:00:04.971Z,10.80
2019-05-09T02:01:13.384Z,10.80
2019-05-09T02:02:08.458Z,10.80
2019-05-09T02:03:04.915Z,10.80
2019-05-09T02:04:07.608Z,10.80
2019-05-09T02:05:08.165Z,10.80
2019-05-09T02:06:05.183Z,10.80
2019-05-09T02:07:07.849Z,10.80
2019-05-09T02:08:04.831Z,10.80
2019-05-09T02:09:10.051Z,10.80
2019-05-09T02:10:07.576Z,10.80
2019-05-09T02:11:12.956Z,10.80
2019-05-09T02:12:07.818Z,10.80
2019-05-09T02:13:07.380Z,10.80
2019-05-09T02:14:05.342Z,10.80
2019-05-09T02:15:05.428Z,10.80
2019-05-09T02:16:05.536Z,10.80
2019-05-09T02:17:05.571Z,10.80
2019-05-09T02:18:05.298Z,10.80
2019-05-09T02:19:05.490Z,10.80
2019-05-09T02:20:08.216Z,10.80
2019-05-09T02:21:05.212Z,10.80
2019-05-09T02:22:05.382Z,10.80
2019-05-09T02:23:05.446Z,10.80
2019-05-09T02:24:05.535Z,10.80
2019-05-09T02:25:05.637Z,10.80
2019-05-09T02:26:07.281Z,10.80
2019-05-09T02:27:07.794Z,10.80
2019-05-09T02:28:07.308Z,10.70
2019-05-09T02:29:10.341Z,10.70
2019-05-09T02:30:05.936Z,10.70
2019-05-09T02:31:05.568Z,10.70
2019-05-09T02:32:04.896Z,10.70
2019-05-09T02:33:05.260Z,10.70
2019-05-09T02:34:05.468Z,10.70
2019-05-09T02:35:08.098Z,10.70
2019-05-09T02:36:09.707Z,10.70
2019-05-09T02:37:04.803Z,10.70
2019-05-09T02:38:09.391Z,10.70
2019-05-09T02:39:08.899Z,10.70
2019-05-09T02:40:09.654Z,10.70
2019-05-09T02:41:08.228Z,10.70
2019-05-09T02:42:10.421Z,10.70
2019-05-09T02:43:10.180Z,10.70
2019-05-09T02:44:09.241Z,10.70
2019-05-09T02:45:08.369Z,10.70
2019-05-09T02:46:05.649Z,10.60
2019-05-09T02:47:08.957Z,10.70
2019-05-09T02:48:09.349Z,10.60
2019-05-09T02:49:08.914Z,10.70
2019-05-09T02:50:08.427Z,10.60
2019-05-09T02:51:05.406Z,10.70
2019-05-09T02:52:04.860Z,10.70
2019-05-09T02:53:07.912Z,10.60
2019-05-09T02:54:05.199Z,10.70
2019-05-09T02:55:09.738Z,10.60
2019-05-09T02:56:09.113Z,10.60
2019-05-09T02:57:09.205Z,10.60
2019-05-09T02:58:08.293Z,10.60
2019-05-09T02:59:09.538Z,10.60
2019-05-09T03:00:08.641Z,10.60
2019-05-09T03:01:08.188Z,10.60
2019-05-09T03:02:09.442Z,10.60
2019-05-09T03:03:04.935Z,10.60
2019-05-09T03:04:08.093Z,10.60
2019-05-09T03:05:09.899Z,10.60
2019-05-09T03:06:04.832Z,10.60
2019-05-09T03:07:10.111Z,10.60
2019-05-09T03:08:05.087Z,10.60
2019-05-09T03:09:04.844Z,10.60
2019-05-09T03:10:08.843Z,10.60
2019-05-09T03:11:09.666Z,10.60
2019-05-09T03:12:22.390Z,10.60
2019-05-09T03:13:08.995Z,10.60
2019-05-09T03:14:09.039Z,10.60
2019-05-09T03:15:05.445Z,10.60
2019-05-09T03:16:08.134Z,10.50
2019-05-09T03:17:04.772Z,10.50
2019-05-09T03:18:08.807Z,10.50
2019-05-09T03:19:12.922Z,10.50
2019-05-09T03:20:04.821Z,10.50
2019-05-09T03:21:08.862Z,10.50
2019-05-09T03:22:08.701Z,10.50
2019-05-09T03:23:09.038Z,10.50
2019-05-09T03:24:05.550Z,10.50
2019-05-09T03:25:08.931Z,10.50
2019-05-09T03:26:10.445Z,10.50
2019-05-09T03:27:08.199Z,10.50
2019-05-09T03:28:05.673Z,10.50
2019-05-09T03:29:08.740Z,10.50
2019-05-09T03:30:05.103Z,10.50
2019-05-09T03:31:08.945Z,10.50
2019-05-09T03:32:08.615Z,10.40
2019-05-09T03:33:05.489Z,10.50
2019-05-09T03:34:05.052Z,10.40
2019-05-09T03:35:08.403Z,10.40
2019-05-09T03:36:07.993Z,10.40
2019-05-09T03:37:08.433Z,10.40
2019-05-09T03:38:08.487Z,10.40
2019-05-09T03:39:04.799Z,10.40
2019-05-09T03:40:07.956Z,10.40
2019-05-09T03:41:05.010Z,10.40
2019-05-09T03:42:07.596Z,10.30
2019-05-09T03:43:04.837Z,10.30
2019-05-09T03:44:10.022Z,10.30
2019-05-09T03:45:05.419Z,10.30
2019-05-09T03:46:12.559Z,10.30
2019-05-09T03:47:08.430Z,10.30
2019-05-09T03:48:07.354Z,10.30
2019-05-09T03:49:07.514Z,10.30
2019-05-09T03:50:08.183Z,10.30
2019-05-09T03:51:08.168Z,10.20
2019-05-09T03:52:10.375Z,10.30
2019-05-09T03:53:05.479Z,10.20
2019-05-09T03:54:08.279Z,10.20
2019-05-09T03:55:07.316Z,10.20
2019-05-09T03:56:07.724Z,10.20
2019-05-09T03:57:12.484Z,10.20
2019-05-09T03:58:10.549Z,10.20
2019-05-09T03:59:08.377Z,10.10
2019-05-09T04:00:07.480Z,10.20
2019-05-09T04:01:10.181Z,10.10
2019-05-09T04:02:04.830Z,10.10
2019-05-09T04:03:05.067Z,10.10
2019-05-09T04:04:08.726Z,10.10
2019-05-09T04:05:08.170Z,10.10
2019-05-09T04:06:07.985Z,10.10
2019-05-09T04:07:05.468Z,10.10
2019-05-09T04:08:07.230Z,10.10
2019-05-09T04:09:10.523Z,10.00
2019-05-09T04:10:07.706Z,10.00
2019-05-09T04:11:04.931Z,10.10
2019-05-09T04:12:07.490Z,10.10
2019-05-09T04:13:08.178Z,10.00
2019-05-09T04:14:08.282Z,10.00
2019-05-09T04:15:05.461Z,10.00
2019-05-09T04:16:07.283Z,10.00
2019-05-09T04:17:07.634Z,10.00
2019-05-09T04:18:08.225Z,10.00
2019-05-09T04:19:08.364Z,9.90
2019-05-09T04:20:05.461Z,10.00
2019-05-09T04:21:05.371Z,10.00
2019-05-09T04:22:08.197Z,10.00
2019-05-09T04:23:05.413Z,9.90
2019-05-09T04:24:08.418Z,10.00
2019-05-09T04:25:11.201Z,9.90
2019-05-09T04:26:07.814Z,10.00
2019-05-09T04:27:05.017Z,9.90
2019-05-09T04:28:07.441Z,9.90
2019-05-09T04:29:05.387Z,9.90
2019-05-09T04:30:07.109Z,9.90
2019-05-09T04:31:08.176Z,9.90
2019-05-09T04:32:05.310Z,9.90
2019-05-09T04:33:04.670Z,9.90
2019-05-09T04:34:05.022Z,9.90
2019-05-09T04:35:08.136Z,9.90
2019-05-09T04:36:05.624Z,9.90
2019-05-09T04:37:05.084Z,9.90
2019-05-09T04:38:07.678Z,9.80
2019-05-09T04:39:07.693Z,9.90
2019-05-09T04:40:08.213Z,9.90
2019-05-09T04:41:06.914Z,9.90
2019-05-09T04:42:07.753Z,9.90
2019-05-09T04:43:11.797Z,9.90
2019-05-09T04:44:04.938Z,9.90
2019-05-09T04:45:10.268Z,9.90
2019-05-09T04:46:12.803Z,9.90
2019-05-09T04:47:05.116Z,9.90
2019-05-09T04:48:07.874Z,9.90
2019-05-09T04:49:08.165Z,9.90
2019-05-09T04:50:07.423Z,9.90
2019-05-09T04:51:04.687Z,9.90
2019-05-09T04:52:10.786Z,9.90
2019-05-09T04:53:04.864Z,10.00
2019-05-09T04:54:07.288Z,10.00
2019-05-09T04:55:07.667Z,10.00
2019-05-09T04:56:10.255Z,10.00
2019-05-09T04:57:08.001Z,10.00
2019-05-09T04:58:09.216Z,10.00
2019-05-09T04:59:07.250Z,10.00
2019-05-09T05:00:10.063Z,10.00
2019-05-09T05:01:10.188Z,10.00
2019-05-09T05:02:05.243Z,10.00
2019-05-09T05:03:08.063Z,10.00
2019-05-09T05:04:05.092Z,10.00
2019-05-09T05:05:07.535Z,10.00
2019-05-09T05:06:07.775Z,10.10
2019-05-09T05:07:04.866Z,10.00
2019-05-09T05:08:07.999Z,10.10
2019-05-09T05:09:05.139Z,10.10
2019-05-09T05:10:08.671Z,10.10
2019-05-09T05:11:07.199Z,10.10
2019-05-09T05:12:08.478Z,10.10
2019-05-09T05:13:23.016Z,10.10
2019-05-09T05:14:08.887Z,10.10
2019-05-09T05:15:08.147Z,10.20
2019-05-09T05:16:08.407Z,10.10
2019-05-09T05:17:10.131Z,10.20
2019-05-09T05:18:08.581Z,10.20
2019-05-09T05:19:07.318Z,10.20
2019-05-09T05:20:05.583Z,10.20
2019-05-09T05:21:07.880Z,10.20
2019-05-09T05:22:06.871Z,10.20
2019-05-09T05:23:08.266Z,10.20
2019-05-09T05:24:05.517Z,10.20
2019-05-09T05:25:05.149Z,10.20
2019-05-09T05:26:05.387Z,10.20
2019-05-09T05:27:10.591Z,10.20
2019-05-09T05:28:05.644Z,10.30
2019-05-09T05:29:08.484Z,10.30
2019-05-09T05:30:07.463Z,10.30
2019-05-09T05:31:09.939Z,10.30
2019-05-09T05:32:05.211Z,10.30
2019-05-09T05:33:08.148Z,10.30
2019-05-09T05:34:05.367Z,10.40
2019-05-09T05:35:07.535Z,10.40
2019-05-09T05:36:04.831Z,10.40
2019-05-09T05:37:09.951Z,10.50
2019-05-09T05:38:09.990Z,10.50
2019-05-09T05:39:07.621Z,10.60
2019-05-09T05:40:07.703Z,10.50
2019-05-09T05:41:08.041Z,10.70
2019-05-09T05:42:05.150Z,10.70
2019-05-09T05:43:05.125Z,10.70
2019-05-09T05:44:05.428Z,10.80
2019-05-09T05:45:07.571Z,10.80
2019-05-09T05:46:09.865Z,10.90
2019-05-09T05:47:07.756Z,10.90
2019-05-09T05:48:05.007Z,11.00
2019-05-09T05:49:05.146Z,11.00
2019-05-09T05:50:05.039Z,11.00
2019-05-09T05:51:08.172Z,11.20
2019-05-09T05:52:07.445Z,11.10
2019-05-09T05:53:05.114Z,11.30
2019-05-09T05:54:08.277Z,11.50
2019-05-09T05:55:07.518Z,11.50
2019-05-09T05:56:09.891Z,11.70
2019-05-09T05:57:04.887Z,11.70
2019-05-09T05:58:08.541Z,12.00
2019-05-09T05:59:08.476Z,12.10
2019-05-09T06:00:07.816Z,12.10
2019-05-09T06:01:05.185Z,12.20
2019-05-09T06:02:05.252Z,12.30
2019-05-09T06:03:05.429Z,12.50
2019-05-09T06:04:07.585Z,12.50
2019-05-09T06:05:08.432Z,12.60
2019-05-09T06:06:05.607Z,12.60
2019-05-09T06:07:07.871Z,12.70
2019-05-09T06:08:08.235Z,12.70
2019-05-09T06:09:05.368Z,12.70
2019-05-09T06:10:08.306Z,12.70
2019-05-09T06:11:17.667Z,12.70
2019-05-09T06:12:04.945Z,12.70
2019-05-09T06:13:05.143Z,12.70
2019-05-09T06:14:11.058Z,12.70
2019-05-09T06:15:07.764Z,12.80
2019-05-09T06:16:05.008Z,12.70
2019-05-09T06:17:08.254Z,12.90
2019-05-09T06:18:08.174Z,13.00
2019-05-09T06:19:05.450Z,13.00
2019-05-09T06:20:08.864Z,13.10
2019-05-09T06:21:05.078Z,13.10
2019-05-09T06:22:05.249Z,13.30
2019-05-09T06:23:12.630Z,13.50
2019-05-09T06:24:08.614Z,13.60
2019-05-09T06:25:09.527Z,13.70
2019-05-09T06:26:09.813Z,13.70
2019-05-09T06:27:07.709Z,13.70
2019-05-09T06:28:07.418Z,13.70
2019-05-09T06:29:08.070Z,13.80
2019-05-09T06:30:08.593Z,13.80
2019-05-09T06:31:07.703Z,13.90
2019-05-09T06:32:04.835Z,13.90
2019-05-09T06:33:05.454Z,14.10
2019-05-09T06:34:08.502Z,14.30
2019-05-09T06:35:04.710Z,14.30
2019-05-09T06:36:10.289Z,14.40
2019-05-09T06:37:08.845Z,14.50
2019-05-09T06:38:07.664Z,14.50
2019-05-09T06:39:05.058Z,14.60
2019-05-09T06:40:05.206Z,14.70
2019-05-09T06:41:04.915Z,14.80
2019-05-09T06:42:10.045Z,14.90
2019-05-09T06:43:08.063Z,14.90
2019-05-09T06:44:14.067Z,14.80
2019-05-09T06:45:07.495Z,14.80
2019-05-09T06:46:04.949Z,14.80
2019-05-09T06:47:05.037Z,14.70
2019-05-09T06:48:07.718Z,14.60
2019-05-09T06:49:21.179Z,14.60
2019-05-09T06:50:05.287Z,14.60
2019-05-09T06:51:07.464Z,14.50
2019-05-09T06:52:08.675Z,14.40
2019-05-09T06:53:04.847Z,14.40
2019-05-09T06:54:05.103Z,14.30
2019-05-09T06:55:05.371Z,14.30
2019-05-09T06:56:07.393Z,14.30
2019-05-09T06:57:04.852Z,14.30
2019-05-09T06:58:05.120Z,14.20
2019-05-09T06:59:10.495Z,14.20
2019-05-09T07:00:08.452Z,14.20
2019-05-09T07:01:07.654Z,14.20
2019-05-09T07:02:10.203Z,14.10
2019-05-09T07:03:08.179Z,14.10
2019-05-09T07:04:05.500Z,14.10
2019-05-09T07:05:04.701Z,14.10
2019-05-09T07:06:05.588Z,14.00
2019-05-09T07:07:07.664Z,14.00
2019-05-09T07:08:05.263Z,14.00
2019-05-09T07:09:05.546Z,14.00
2019-05-09T07:10:07.547Z,14.00
2019-05-09T07:11:12.401Z,14.10
2019-05-09T07:12:07.642Z,14.10
2019-05-09T07:13:08.069Z,14.40
2019-05-09T07:14:08.412Z,14.60
2019-05-09T07:15:08.900Z,14.80
2019-05-09T07:16:05.030Z,14.80
2019-05-09T07:17:07.790Z,14.90
2019-05-09T07:18:08.279Z,15.20
2019-05-09T07:19:08.151Z,15.40
2019-05-09T07:20:08.052Z,15.30
2019-05-09T07:21:05.560Z,15.50
2019-05-09T07:22:04.943Z,15.60
2019-05-09T07:23:08.977Z,15.80
2019-05-09T07:24:07.991Z,15.90
2019-05-09T07:25:07.332Z,15.90
2019-05-09T07:26:07.859Z,16.00
2019-05-09T07:27:07.578Z,16.10
2019-05-09T07:28:07.701Z,16.10
2019-05-09T07:29:07.212Z,16.20
2019-05-09T07:30:07.653Z,16.20
2019-05-09T07:31:07.732Z,16.40
2019-05-09T07:32:12.924Z,16.50
2019-05-09T07:33:04.908Z,16.50
2019-05-09T07:34:08.518Z,16.60
2019-05-09T07:35:08.780Z,16.70
2019-05-09T07:36:05.175Z,16.70
2019-05-09T07:37:08.419Z,16.70
2019-05-09T07:38:08.709Z,16.80
2019-05-09T07:39:05.077Z,16.80
2019-05-09T07:40:10.396Z,16.80
2019-05-09T07:41:08.509Z,16.80
2019-05-09T07:42:07.394Z,16.90
2019-05-09T07:43:06.999Z,17.00
2019-05-09T07:44:09.911Z,17.10
2019-05-09T07:45:05.069Z,17.10
2019-05-09T07:46:04.853Z,17.10
2019-05-09T07:47:07.721Z,17.30
2019-05-09T07:48:04.880Z,17.30
2019-05-09T07:49:05.371Z,17.30
2019-05-09T07:50:08.138Z,17.30
2019-05-09T07:51:07.921Z,17.40
2019-05-09T07:52:07.463Z,17.40
2019-05-09T07:53:08.743Z,17.50
2019-05-09T07:54:18.042Z,17.50
2019-05-09T07:55:08.737Z,17.60
2019-05-09T07:56:05.098Z,17.60
2019-05-09T07:57:08.476Z,17.70
2019-05-09T07:58:08.130Z,17.70
2019-05-09T07:59:07.425Z,17.70
2019-05-09T08:00:04.909Z,17.70
2019-05-09T08:01:07.790Z,17.80
2019-05-09T08:02:04.828Z,17.80
2019-05-09T08:03:07.876Z,17.70
2019-05-09T08:04:07.639Z,17.80
2019-05-09T08:05:04.940Z,17.80
2019-05-09T08:06:05.387Z,17.80
2019-05-09T08:07:08.067Z,17.80
2019-05-09T08:08:08.207Z,17.80
2019-05-09T08:09:10.543Z,17.80
2019-05-09T08:10:08.758Z,17.80
2019-05-09T08:11:08.784Z,17.80
2019-05-09T08:12:07.259Z,17.80
2019-05-09T08:13:08.099Z,17.80
2019-05-09T08:14:04.997Z,17.80
2019-05-09T08:15:11.430Z,17.80
2019-05-09T08:16:05.021Z,17.90
2019-05-09T08:17:05.019Z,17.90
2019-05-09T08:18:08.551Z,18.00
2019-05-09T08:19:04.759Z,18.00
2019-05-09T08:20:08.181Z,18.20
2019-05-09T08:21:05.263Z,18.20
2019-05-09T08:22:07.675Z,18.30
2019-05-09T08:23:05.040Z,18.30
2019-05-09T08:24:08.186Z,18.20
2019-05-09T08:25:08.394Z,18.10
2019-05-09T08:26:05.449Z,18.10
2019-05-09T08:27:05.450Z,18.10
2019-05-09T08:28:05.525Z,18.00
2019-05-09T08:29:05.648Z,17.90
2019-05-09T08:30:07.545Z,18.00
2019-05-09T08:31:10.345Z,17.90
2019-05-09T08:32:07.399Z,18.00
2019-05-09T08:33:08.189Z,18.00
2019-05-09T08:34:07.663Z,18.00
2019-05-09T08:35:05.260Z,18.10
2019-05-09T08:36:04.947Z,18.00
2019-05-09T08:37:08.381Z,18.10
2019-05-09T08:38:05.588Z,18.00
2019-05-09T08:39:07.739Z,18.00
2019-05-09T08:40:07.715Z,17.90
2019-05-09T08:41:05.126Z,17.90
2019-05-09T08:42:07.726Z,17.80
2019-05-09T08:43:07.294Z,17.70
2019-05-09T08:44:07.761Z,17.60
2019-05-09T08:45:05.171Z,17.40
2019-05-09T08:46:08.183Z,17.10
2019-05-09T08:47:05.242Z,17.10
2019-05-09T08:48:13.537Z,16.90
2019-05-09T08:49:09.359Z,16.80
2019-05-09T08:50:07.739Z,16.80
2019-05-09T08:51:05.060Z,16.70
2019-05-09T08:52:12.570Z,16.60
2019-05-09T08:53:08.290Z,16.50
2019-05-09T08:54:05.607Z,16.50
2019-05-09T08:55:04.907Z,16.60
2019-05-09T08:56:05.132Z,16.60
2019-05-09T08:57:07.360Z,16.60
2019-05-09T08:58:05.029Z,16.60
2019-05-09T08:59:08.390Z,16.70
2019-05-09T09:00:07.511Z,16.70
2019-05-09T09:01:11.497Z,16.70
2019-05-09T09:02:14.259Z,16.70
2019-05-09T09:03:10.218Z,16.80
2019-05-09T09:04:08.148Z,16.80
2019-05-09T09:05:05.180Z,16.80
2019-05-09T09:06:08.214Z,16.80
2019-05-09T09:07:05.400Z,16.80
2019-05-09T09:08:07.904Z,16.80
2019-05-09T09:09:07.800Z,16.70
2019-05-09T09:10:08.392Z,16.60
2019-05-09T09:11:05.660Z,16.50
2019-05-09T09:12:21.038Z,16.50
2019-05-09T09:13:05.448Z,16.40
2019-05-09T09:14:07.767Z,16.40
2019-05-09T09:15:07.923Z,16.50
2019-05-09T09:16:15.581Z,16.50
2019-05-09T09:17:05.243Z,16.60
2019-05-09T09:18:08.806Z,16.70
2019-05-09T09:19:04.943Z,16.70
2019-05-09T09:20:07.417Z,16.80
2019-05-09T09:21:08.150Z,17.00
2019-05-09T09:22:05.408Z,16.90
2019-05-09T09:23:05.865Z,17.00
2019-05-09T09:24:08.702Z,17.30
2019-05-09T09:25:07.825Z,17.30
2019-05-09T09:26:08.140Z,17.20
2019-05-09T09:27:07.072Z,17.30
2019-05-09T09:28:08.682Z,17.20
2019-05-09T09:29:04.928Z,17.20
2019-05-09T09:30:17.549Z,17.20
2019-05-09T09:31:08.092Z,17.20
2019-05-09T09:32:05.466Z,17.20
2019-05-09T09:33:10.018Z,17.10
2019-05-09T09:34:04.957Z,17.10
2019-05-09T09:35:07.994Z,17.10
2019-05-09T09:36:05.056Z,17.10
2019-05-09T09:37:08.216Z,17.10
2019-05-09T09:38:09.272Z,17.20
2019-05-09T09:39:08.201Z,17.20
2019-05-09T09:40:08.738Z,17.30
2019-05-09T09:41:07.432Z,17.30
2019-05-09T09:42:08.967Z,17.40
2019-05-09T09:43:09.085Z,17.50
2019-05-09T09:44:08.718Z,17.50
2019-05-09T09:45:07.892Z,17.60
2019-05-09T09:46:20.340Z,17.60
2019-05-09T09:47:07.304Z,17.60
2019-05-09T09:48:05.660Z,17.60
2019-05-09T09:49:09.852Z,17.70
2019-05-09T09:50:05.100Z,17.70
2019-05-09T09:51:05.298Z,17.70
2019-05-09T09:52:04.922Z,17.80
2019-05-09T09:53:08.171Z,17.80
2019-05-09T09:54:08.727Z,17.80
2019-05-09T09:55:05.069Z,17.80
2019-05-09T09:56:08.637Z,17.90
2019-05-09T09:57:09.596Z,17.90
2019-05-09T09:58:08.126Z,17.80
2019-05-09T09:59:08.231Z,17.80
2019-05-09T10:00:07.758Z,17.70
2019-05-09T10:01:08.973Z,17.70
2019-05-09T10:02:10.189Z,17.60
2019-05-09T10:03:07.750Z,17.60
2019-05-09T10:04:16.459Z,17.50
2019-05-09T10:05:07.805Z,17.40
2019-05-09T10:06:05.238Z,17.40
2019-05-09T10:07:08.829Z,17.30
2019-05-09T10:08:10.046Z,17.30
2019-05-09T10:09:05.011Z,17.30
2019-05-09T10:10:07.597Z,17.20
2019-05-09T10:11:08.164Z,17.30
2019-05-09T10:12:08.984Z,17.40
2019-05-09T10:13:05.210Z,17.30
2019-05-09T10:14:07.718Z,17.40
2019-05-09T10:15:05.045Z,17.30
2019-05-09T10:16:05.506Z,17.20
2019-05-09T10:17:09.635Z,17.30
2019-05-09T10:18:10.493Z,17.10
2019-05-09T10:19:08.038Z,17.10
2019-05-09T10:20:07.883Z,17.20
2019-05-09T10:21:07.529Z,17.20
2019-05-09T10:22:08.473Z,17.10
2019-05-09T10:23:11.657Z,17.10
2019-05-09T10:24:08.334Z,17.10
2019-05-09T10:25:08.032Z,17.00
2019-05-09T10:26:05.284Z,17.00
2019-05-09T10:27:07.889Z,16.90
2019-05-09T10:28:08.658Z,16.80
2019-05-09T10:29:04.881Z,16.80
2019-05-09T10:30:10.195Z,16.70
2019-05-09T10:31:05.261Z,16.70
2019-05-09T10:32:05.441Z,16.70
2019-05-09T10:33:09.109Z,16.70
2019-05-09T10:34:10.761Z,16.70
2019-05-09T10:35:08.714Z,16.70
2019-05-09T10:36:05.247Z,16.70
2019-05-09T10:37:10.630Z,16.80
2019-05-09T10:38:08.833Z,16.90
2019-05-09T10:39:05.361Z,16.90
2019-05-09T10:40:04.904Z,17.00
2019-05-09T10:41:05.271Z,17.00
2019-05-09T10:42:08.127Z,17.20
2019-05-09T10:43:07.889Z,17.20
2019-05-09T10:44:05.337Z,17.30
2019-05-09T10:45:07.677Z,17.40
2019-05-09T10:46:08.285Z,17.50
2019-05-09T10:47:13.175Z,17.50
2019-05-09T10:48:05.267Z,17.50
2019-05-09T10:49:07.883Z,17.60
2019-05-09T10:50:05.586Z,17.70
2019-05-09T10:51:06.029Z,17.70
2019-05-09T10:52:08.730Z,17.90
2019-05-09T10:53:08.082Z,17.90
2019-05-09T10:54:07.740Z,17.90
2019-05-09T10:55:05.298Z,18.00
2019-05-09T10:56:08.770Z,18.10
2019-05-09T10:57:05.152Z,18.10
2019-05-09T10:58:07.731Z,18.10
2019-05-09T10:59:07.470Z,18.20
2019-05-09T11:00:07.939Z,18.20
2019-05-09T11:01:05.014Z,18.20
2019-05-09T11:02:09.096Z,18.20
2019-05-09T11:03:04.727Z,18.20
2019-05-09T11:04:04.895Z,18.20
2019-05-09T11:05:04.860Z,18.20
2019-05-09T11:06:08.517Z,18.30
2019-05-09T11:07:08.043Z,18.20
2019-05-09T11:08:07.786Z,18.20
2019-05-09T11:09:05.207Z,18.30
2019-05-09T11:10:23.623Z,18.30
2019-05-09T11:11:06.083Z,18.40
2019-05-09T11:12:07.558Z,18.40
2019-05-09T11:13:07.300Z,18.40
2019-05-09T11:14:08.298Z,18.50
2019-05-09T11:15:09.104Z,18.60
2019-05-09T11:16:07.839Z,18.60
2019-05-09T11:17:11.467Z,18.60
2019-05-09T11:18:08.072Z,18.70
2019-05-09T11:19:10.344Z,18.70
2019-05-09T11:20:08.393Z,18.70
2019-05-09T11:21:08.349Z,18.80
2019-05-09T11:22:07.987Z,18.80
2019-05-09T11:23:07.855Z,18.90
2019-05-09T11:24:08.306Z,19.00
2019-05-09T11:25:08.818Z,19.00
2019-05-09T11:26:05.028Z,19.00
2019-05-09T11:27:05.251Z,19.00
2019-05-09T11:28:10.339Z,19.00
2019-05-09T11:29:04.929Z,19.00
2019-05-09T11:30:08.323Z,19.00
2019-05-09T11:31:08.469Z,18.90
2019-05-09T11:32:10.362Z,18.90
2019-05-09T11:33:07.587Z,18.90
2019-05-09T11:34:04.968Z,18.80
2019-05-09T11:35:05.298Z,18.90
2019-05-09T11:36:04.796Z,18.90
2019-05-09T11:37:05.042Z,18.90
2019-05-09T11:38:05.116Z,19.00
2019-05-09T11:39:10.195Z,19.00
2019-05-09T11:40:05.088Z,19.10
2019-05-09T11:41:05.415Z,19.10
2019-05-09T11:42:05.199Z,19.20
2019-05-09T11:43:07.811Z,19.20
2019-05-09T11:44:09.931Z,19.30
2019-05-09T11:45:08.105Z,19.40
2019-05-09T11:46:10.188Z,19.40
2019-05-09T11:47:23.820Z,19.40
2019-05-09T11:48:07.930Z,19.30
2019-05-09T11:49:10.202Z,19.30
2019-05-09T11:50:08.738Z,19.30
2019-05-09T11:51:04.951Z,19.30
2019-05-09T11:52:08.340Z,19.20
2019-05-09T11:53:10.730Z,19.10
2019-05-09T11:54:09.071Z,19.10
2019-05-09T11:55:07.620Z,19.10
2019-05-09T11:56:08.268Z,19.00
2019-05-09T11:57:10.439Z,19.10
2019-05-09T11:58:08.083Z,19.10
2019-05-09T11:59:07.600Z,19.10
2019-05-09T12:00:05.087Z,19.10
2019-05-09T12:01:04.915Z,19.20
2019-05-09T12:02:08.812Z,19.20
2019-05-09T12:03:09.061Z,19.20
2019-05-09T12:04:07.852Z,19.20
2019-05-09T12:05:05.235Z,19.30
2019-05-09T12:06:07.700Z,19.30
2019-05-09T12:07:07.647Z,19.40
2019-05-09T12:08:05.081Z,19.40
2019-05-09T12:09:08.549Z,19.40
2019-05-09T12:10:07.586Z,19.50
2019-05-09T12:11:08.324Z,19.50
2019-05-09T12:12:05.753Z,19.50
2019-05-09T12:13:05.052Z,19.50
2019-05-09T12:14:05.170Z,19.50
2019-05-09T12:15:05.383Z,19.50
2019-05-09T12:16:08.088Z,19.50
2019-05-09T12:17:05.100Z,19.50
2019-05-09T12:18:09.036Z,19.40
2019-05-09T12:19:08.229Z,19.30
2019-05-09T12:20:10.309Z,19.30
2019-05-09T12:21:05.453Z,19.30
2019-05-09T12:22:05.630Z,19.20
2019-05-09T12:23:04.743Z,19.20
2019-05-09T12:24:04.839Z,19.30
2019-05-09T12:25:05.140Z,19.30
2019-05-09T12:26:07.997Z,19.30
2019-05-09T12:27:05.375Z,19.40
2019-05-09T12:28:04.850Z,19.40
2019-05-09T12:29:04.977Z,19.40
2019-05-09T12:30:05.360Z,19.30
2019-05-09T12:31:07.690Z,19.30
2019-05-09T12:32:04.974Z,19.30
2019-05-09T12:33:08.664Z,19.20
2019-05-09T12:34:04.811Z,19.20
2019-05-09T12:35:08.846Z,19.20
2019-05-09T12:36:05.085Z,19.10
2019-05-09T12:37:05.511Z,19.10
2019-05-09T12:38:08.330Z,18.90
2019-05-09T12:39:08.838Z,18.90
2019-05-09T12:40:08.287Z,18.80
2019-05-09T12:41:07.623Z,18.70
2019-05-09T12:42:09.998Z,18.60
2019-05-09T12:43:09.064Z,18.60
2019-05-09T12:44:05.237Z,18.60
2019-05-09T12:45:05.016Z,18.50
2019-05-09T12:46:08.567Z,18.40
2019-05-09T12:47:04.855Z,18.40
2019-05-09T12:48:10.106Z,18.40
2019-05-09T12:49:08.910Z,18.20
2019-05-09T12:50:08.580Z,18.10
2019-05-09T12:51:04.957Z,18.10
2019-05-09T12:52:08.010Z,18.10
2019-05-09T12:53:05.263Z,18.00